Time;durP1;ratioP1;P1;durP2;ratioP2;P2;SDS_P1;SDS_P2;PMS_P1;PMS_P2;Temp;Humidity;BMP_temperature;BMP_pressure;BME280_temperature;BME280_humidity;BME280_pressure;Samples;Min_cycle;Max_cycle;Signal;HPM_P1;HPM_P2
2022/12/13 00:06:38;;;;;;;11.68;2.50;;;14.60;86.20;;;;;;21175382;28;20082;-61
2022/12/13 00:16:47;;;;;;;10.02;2.42;;;14.60;85.90;;;;;;21175498;28;20048;-64
2022/12/13 00:26:49;;;;;;;15.88;3.60;;;14.60;85.80;;;;;;21172935;28;20058;-61
2022/12/13 00:36:54;;;;;;;19.30;3.93;;;14.50;85.40;;;;;;21172294;28;20157;-63
2022/12/13 00:46:58;;;;;;;10.27;3.28;;;14.50;85.30;;;;;;21171726;28;20510;-59
2022/12/13 00:57:02;;;;;;;14.02;2.78;;;14.40;85.50;;;;;;21169377;28;20055;-59
2022/12/13 01:07:03;;;;;;;17.80;3.55;;;14.30;85.50;;;;;;21170802;28;20127;-63
2022/12/13 01:17:06;;;;;;;19.98;4.65;;;14.40;85.80;;;;;;21169638;28;20047;-60
2022/12/13 01:27:09;;;;;;;12.15;2.80;;;14.40;85.70;;;;;;21168030;28;20130;-59
2022/12/13 01:37:12;;;;;;;17.23;4.03;;;14.30;85.70;;;;;;21166552;28;20044;-60
2022/12/13 01:47:29;;;;;;;14.02;3.35;;;14.40;85.80;;;;;;21166140;28;20075;-60
2022/12/13 01:57:34;;;;;;;16.88;4.85;;;14.40;85.60;;;;;;21165120;28;20056;-59
2022/12/13 02:07:37;;;;;;;14.03;3.20;;;14.30;85.90;;;;;;21165330;28;20043;-60
2022/12/13 02:17:49;;;;;;;12.33;3.23;;;14.30;85.80;;;;;;21164364;28;20048;-59
2022/12/13 02:28:15;;;;;;;12.05;2.95;;;14.20;85.70;;;;;;21163470;28;20046;-59
2022/12/13 02:38:27;;;;;;;14.63;2.88;;;14.20;85.40;;;;;;21162998;28;20056;-61
2022/12/13 02:48:35;;;;;;;14.60;3.83;;;14.10;85.20;;;;;;21162307;28;20051;-59
2022/12/13 02:58:46;;;;;;;13.00;3.15;;;14.10;85.20;;;;;;21161937;28;20095;-60
2022/12/13 03:09:28;;;;;;;13.30;2.88;;;14.20;84.90;;;;;;21162041;28;20456;-59
2022/12/13 03:19:31;;;;;;;16.15;2.65;;;14.20;84.80;;;;;;21174616;28;20466;-60
2022/12/13 03:29:36;;;;;;;13.18;3.05;;;14.20;84.80;;;;;;21177941;28;20071;-59
2022/12/13 03:39:43;;;;;;;8.52;2.33;;;14.20;84.90;;;;;;21176482;28;20056;-61
2022/12/13 03:49:46;;;;;;;11.75;2.33;;;14.20;85.30;;;;;;21175645;28;20055;-60
2022/12/13 03:59:51;;;;;;;9.15;2.42;;;14.20;85.30;;;;;;21174922;28;20059;-60
2022/12/13 04:09:55;;;;;;;11.87;2.23;;;14.30;85.60;;;;;;21173920;28;20040;-60
2022/12/13 04:19:58;;;;;;;6.85;1.52;;;14.20;86.00;;;;;;21173488;28;20043;-62
2022/12/13 04:30:05;;;;;;;8.10;1.90;;;14.20;86.20;;;;;;21172844;28;20116;-60
2022/12/13 04:40:10;;;;;;;4.85;1.55;;;14.20;86.30;;;;;;21172658;28;20056;-59
2022/12/13 04:50:30;;;;;;;7.05;1.92;;;14.20;86.40;;;;;;21170941;28;20047;-59
2022/12/13 05:00:32;;;;;;;3.28;1.75;;;14.20;86.80;;;;;;21170038;28;20134;-59
2022/12/13 05:10:37;;;;;;;2.42;0.93;;;14.20;87.50;;;;;;21170780;28;20122;-61
2022/12/13 05:20:42;;;;;;;3.30;1.13;;;14.20;87.60;;;;;;21168972;28;20048;-59
2022/12/13 05:30:45;;;;;;;4.63;1.40;;;14.20;87.60;;;;;;21167673;28;20044;-59
2022/12/13 05:40:51;;;;;;;4.55;2.20;;;14.30;87.80;;;;;;21166473;28;20483;-60
2022/12/13 05:50:56;;;;;;;8.32;4.03;;;14.30;87.80;;;;;;21166259;28;20470;-59
2022/12/13 06:01:10;;;;;;;11.70;5.65;;;14.30;87.80;;;;;;21165426;28;20095;-60
2022/12/13 06:11:14;;;;;;;12.35;9.75;;;14.30;87.90;;;;;;21164612;28;20051;-59
2022/12/13 06:21:19;;;;;;;9.88;6.63;;;14.20;87.80;;;;;;21164244;28;20051;-59
2022/12/13 06:31:22;;;;;;;11.95;7.28;;;14.20;87.80;;;;;;21164760;28;20087;-61
2022/12/13 06:41:25;;;;;;;8.90;5.47;;;14.10;88.00;;;;;;21163468;28;20479;-61
2022/12/13 06:51:33;;;;;;;9.57;6.35;;;14.10;88.10;;;;;;21171098;28;20127;-59
2022/12/13 07:01:38;;;;;;;8.38;5.57;;;14.20;88.20;;;;;;21180727;28;20062;-60
2022/12/13 07:11:42;;;;;;;10.82;5.85;;;14.20;88.30;;;;;;21179070;28;20048;-60
2022/12/13 07:21:43;;;;;;;4.35;1.90;;;14.20;88.40;;;;;;21178393;28;20058;-59
2022/12/13 07:31:45;;;;;;;7.05;5.25;;;14.30;88.60;;;;;;21177694;28;20548;-58
2022/12/13 07:41:47;;;;;;;8.63;3.97;;;14.30;88.80;;;;;;21176411;28;20471;-59
2022/12/13 07:51:49;;;;;;;4.70;2.40;;;14.40;88.70;;;;;;21175170;28;20055;-59
2022/12/13 08:01:51;;;;;;;9.20;3.70;;;14.40;88.70;;;;;;21175322;28;20116;-59
2022/12/13 08:11:52;;;;;;;5.53;3.10;;;14.50;88.60;;;;;;21173911;28;20044;-59
2022/12/13 08:22:13;;;;;;;5.32;1.88;;;14.50;88.60;;;;;;21172926;28;20055;-61
2022/12/13 08:32:15;;;;;;;6.25;4.05;;;14.50;88.50;;;;;;21173614;28;20071;-60
2022/12/13 08:42:17;;;;;;;6.35;3.15;;;14.50;88.20;;;;;;21172188;28;20113;-60
2022/12/13 08:52:21;;;;;;;7.85;3.83;;;14.40;88.30;;;;;;21170581;28;20059;-60
2022/12/13 09:02:23;;;;;;;6.27;4.10;;;14.40;88.20;;;;;;21170191;28;20047;-61
2022/12/13 09:12:24;;;;;;;9.25;7.88;;;14.40;88.30;;;;;;21168599;28;20706;-59
2022/12/13 09:22:26;;;;;;;7.55;4.47;;;14.40;88.60;;;;;;21167504;28;20061;-60
2022/12/13 09:32:29;;;;;;;8.57;4.05;;;14.50;88.60;;;;;;21167744;28;20119;-61
2022/12/13 09:42:33;;;;;;;10.70;5.93;;;14.50;88.70;;;;;;21168167;28;20071;-59
2022/12/13 09:52:38;;;;;;;10.40;4.88;;;14.50;88.90;;;;;;21165921;28;20096;-60
2022/12/13 10:02:50;;;;;;;4.75;2.92;;;14.50;88.90;;;;;;21163514;28;20140;-64
2022/12/13 10:13:23;;;;;;;5.80;4.18;;;15.30;84.60;;;;;;21164094;28;20067;-63
2022/12/13 10:23:26;;;;;;;3.85;2.70;;;15.10;86.20;;;;;;21164646;28;20491;-61
2022/12/13 10:33:35;;;;;;;6.88;3.10;;;15.00;87.60;;;;;;21163498;28;20499;-59
2022/12/13 10:43:37;;;;;;;5.38;2.67;;;15.70;84.20;;;;;;21162722;28;20130;-62
2022/12/13 10:53:46;;;;;;;10.52;5.22;;;16.00;83.50;;;;;;21140019;28;20056;-61
2022/12/13 11:04:02;;;;;;;12.65;6.40;;;16.10;83.30;;;;;;21161249;28;20054;-61
2022/12/13 11:14:04;;;;;;;8.70;3.92;;;16.00;83.80;;;;;;21160691;28;20131;-59
2022/12/13 11:24:07;;;;;;;8.90;4.82;;;16.10;83.50;;;;;;21154119;28;20114;-61
2022/12/13 11:34:24;;;;;;;4.40;2.67;;;16.20;83.30;;;;;;21167274;28;20130;-61
2022/12/13 11:44:36;;;;;;;10.07;3.10;;;16.20;83.50;;;;;;21171972;28;20043;-56
2022/12/13 11:54:50;;;;;;;8.60;3.72;;;16.40;84.50;;;;;;21173403;28;20139;-57
2022/12/13 12:04:52;;;;;;;7.30;4.30;;;16.50;84.40;;;;;;21170797;27;20453;-59
2022/12/13 12:15:14;;;;;;;8.23;4.93;;;16.00;85.60;;;;;;21168720;28;20123;-57
2022/12/13 12:25:39;;;;;;;7.75;3.90;;;15.60;86.60;;;;;;21165945;28;20127;-59
2022/12/13 12:35:56;;;;;;;7.82;5.00;;;15.50;87.80;;;;;;21168437;28;20043;-57
2022/12/13 12:46:15;;;;;;;6.55;4.05;;;16.20;86.40;;;;;;21166228;28;20046;-61
2022/12/13 12:56:35;;;;;;;5.68;4.70;;;16.50;85.50;;;;;;21167093;28;20470;-61
2022/12/13 13:06:43;;;;;;;6.68;4.47;;;16.70;84.40;;;;;;21166290;28;20044;-61
2022/12/13 13:16:44;;;;;;;6.55;5.07;;;16.20;86.00;;;;;;21169760;28;20072;-62
2022/12/13 13:26:52;;;;;;;9.43;5.70;;;16.10;86.30;;;;;;21190351;27;20384;-60
2022/12/13 13:36:55;;;;;;;9.27;7.00;;;16.00;86.70;;;;;;21251417;27;20051;-60
2022/12/13 13:47:35;;;;;;;15.67;11.40;;;15.90;87.20;;;;;;21251680;27;20406;-61
2022/12/13 13:57:40;;;;;;;14.25;9.82;;;15.90;87.10;;;;;;21250362;27;20051;-61
2022/12/13 14:07:44;;;;;;;10.40;7.47;;;15.90;87.10;;;;;;21250125;27;20047;-61
2022/12/13 14:18:06;;;;;;;7.80;4.20;;;15.90;87.30;;;;;;21251331;27;20583;-62
2022/12/13 14:28:44;;;;;;;4.22;2.88;;;16.00;87.20;;;;;;21250043;27;20118;-60
2022/12/13 14:38:46;;;;;;;3.88;2.60;;;16.10;87.10;;;;;;21249560;27;20051;-61
2022/12/13 14:48:52;;;;;;;3.53;2.15;;;16.10;87.40;;;;;;21230101;27;20112;-60
2022/12/13 14:58:57;;;;;;;3.45;1.27;;;16.20;86.90;;;;;;21246364;27;20061;-62
2022/12/13 15:08:58;;;;;;;2.83;1.50;;;16.20;86.80;;;;;;21249863;27;20055;-62
2022/12/13 15:19:13;;;;;;;2.75;1.40;;;16.00;87.10;;;;;;21263980;27;20096;-62
2022/12/13 15:29:17;;;;;;;;;;;15.90;87.10;;;;;;21263560;27;20120;-60
2022/12/13 15:39:18;;;;;;;2.50;1.40;;;15.80;87.20;;;;;;21263036;27;19919;-61
2022/12/13 15:49:33;;;;;;;5.35;2.42;;;15.90;87.10;;;;;;21261762;27;20088;-60
2022/12/13 15:59:35;;;;;;;3.28;1.70;;;16.00;87.00;;;;;;21260658;27;20448;-60
2022/12/13 16:09:37;;;;;;;5.97;2.30;;;15.90;86.30;;;;;;21259772;27;20172;-61
2022/12/13 16:19:39;;;;;;;8.75;3.20;;;15.90;86.60;;;;;;21231493;27;20052;-60
2022/12/13 16:29:41;;;;;;;5.10;3.20;;;16.00;86.70;;;;;;21153723;28;20086;-61
2022/12/13 16:39:46;;;;;;;6.68;4.53;;;15.80;87.40;;;;;;21148491;28;20444;-63
2022/12/13 16:49:49;;;;;;;6.15;3.60;;;15.90;87.40;;;;;;21162080;28;20050;-61
2022/12/13 16:59:51;;;;;;;8.32;4.55;;;15.70;87.70;;;;;;21154095;28;20090;-59
2022/12/13 17:09:53;;;;;;;4.65;2.10;;;15.70;88.00;;;;;;21137564;28;20143;-60
2022/12/13 17:19:57;;;;;;;;;;;15.70;87.90;;;;;;21148466;28;20486;-61
2022/12/13 17:30:00;;;;;;;4.80;2.30;;;15.70;87.20;;;;;;21115505;28;20376;-60
2022/12/13 17:40:01;;;;;;;5.25;2.67;;;15.70;87.70;;;;;;21165718;28;20055;-61
2022/12/13 17:50:03;;;;;;;4.38;1.60;;;15.70;87.80;;;;;;21167506;28;20498;-61
2022/12/13 18:00:05;;;;;;;3.65;1.90;;;15.70;87.60;;;;;;21165555;28;20055;-59
2022/12/13 18:10:08;;;;;;;2.83;1.80;;;15.70;87.40;;;;;;21164923;28;20051;-60
2022/12/13 18:20:10;;;;;;;4.63;1.83;;;15.70;87.70;;;;;;21164345;28;20083;-59
2022/12/13 18:30:12;;;;;;;4.18;1.75;;;15.70;87.30;;;;;;21163703;28;20058;-59
2022/12/13 18:40:13;;;;;;;3.78;1.50;;;15.80;86.80;;;;;;21163345;28;20093;-59
2022/12/13 18:50:15;;;;;;;6.70;2.40;;;15.70;87.10;;;;;;21162507;28;20187;-59
2022/12/13 19:00:17;;;;;;;5.10;1.80;;;15.70;86.70;;;;;;21162096;28;20051;-60
2022/12/13 19:10:18;;;;;;;4.15;1.95;;;15.60;86.90;;;;;;21162845;28;20044;-59
2022/12/13 19:20:20;;;;;;;4.75;2.00;;;15.60;87.00;;;;;;21163529;28;20510;-60
2022/12/13 19:30:22;;;;;;;6.40;1.80;;;15.60;86.80;;;;;;21161991;28;20407;-58
2022/12/13 19:40:24;;;;;;;3.40;1.50;;;15.60;86.70;;;;;;21161180;28;20058;-59
2022/12/13 19:50:25;;;;;;;3.22;1.65;;;15.50;87.00;;;;;;21160501;28;20428;-61
2022/12/13 20:00:27;;;;;;;4.68;2.22;;;15.40;87.10;;;;;;21169316;28;20056;-61
2022/12/13 20:10:28;;;;;;;3.85;1.50;;;15.50;87.00;;;;;;21174677;28;20048;-60
2022/12/13 20:20:30;;;;;;;4.28;1.75;;;15.50;86.40;;;;;;21173672;28;20052;-60
2022/12/13 20:30:32;;;;;;;2.85;1.42;;;15.50;86.40;;;;;;21172610;28;20050;-59
2022/12/13 20:40:35;;;;;;;6.32;1.73;;;15.40;86.60;;;;;;21171815;28;20494;-61
2022/12/13 20:50:37;;;;;;;6.22;2.35;;;15.30;86.80;;;;;;21172487;28;20062;-60
2022/12/13 21:00:39;;;;;;;4.38;1.52;;;15.20;87.30;;;;;;21170728;28;20495;-62
2022/12/13 21:10:40;;;;;;;1.95;1.00;;;15.20;87.80;;;;;;21169483;28;20039;-60
2022/12/13 21:20:42;;;;;;;3.03;1.13;;;15.20;88.00;;;;;;21169413;28;20054;-60
2022/12/13 21:30:44;;;;;;;3.85;1.83;;;15.20;87.10;;;;;;21168967;28;20047;-59
2022/12/13 21:40:48;;;;;;;1.60;0.70;;;14.90;86.70;;;;;;21167859;28;20126;-60
2022/12/13 21:50:50;;;;;;;1.53;0.97;;;14.70;86.70;;;;;;21167006;28;20047;-62
2022/12/13 22:00:52;;;;;;;1.73;0.80;;;14.60;85.70;;;;;;21166106;28;20055;-59
2022/12/13 22:11:29;;;;;;;1.60;0.77;;;14.50;85.40;;;;;;21166410;28;20063;-61
2022/12/13 22:21:25;;;;;;;2.20;1.10;;;14.60;84.50;;;;;;21162016;28;20078;-59
2022/12/13 22:31:28;;;;;;;1.63;0.88;;;14.40;84.20;;;;;;21164215;28;20059;-60
2022/12/13 22:41:33;;;;;;;2.10;1.00;;;14.50;83.10;;;;;;21163984;28;20510;-61
2022/12/13 22:51:36;;;;;;;2.05;0.70;;;14.30;82.70;;;;;;21163784;28;20381;-61
2022/12/13 23:01:39;;;;;;;2.42;0.80;;;14.20;81.20;;;;;;21163422;28;20047;-60
2022/12/13 23:22:04;;;;;;;2.45;0.73;;;14.20;79.80;;;;;;21162121;28;20047;-59
2022/12/13 23:32:05;;;;;;;1.23;0.70;;;14.10;79.90;;;;;;21167481;28;20463;-60
2022/12/13 23:42:07;;;;;;;1.13;0.52;;;14.00;79.50;;;;;;21176197;28;20055;-60
2022/12/13 23:52:09;;;;;;;0.88;0.50;;;13.90;79.00;;;;;;21177249;28;20047;-60
